createdAt,value
2019-03-24T04:46:41.456Z,28.60
2019-03-24T04:49:12.308Z,30.87
2019-03-24T04:51:43.232Z,30.13
2019-03-24T04:54:14.060Z,32.03
2019-03-24T04:56:44.943Z,34.80
2019-03-24T04:59:15.803Z,33.13
2019-03-24T05:01:46.741Z,31.87
2019-03-24T05:04:17.686Z,33.30
2019-03-24T05:06:48.790Z,31.70
2019-03-24T05:09:19.861Z,31.93
2019-03-24T05:11:50.732Z,31.80
2019-03-24T05:14:21.583Z,31.63
2019-03-24T05:16:52.447Z,31.13
2019-03-24T05:19:23.305Z,31.60
2019-03-24T05:21:54.190Z,33.30
2019-03-24T05:24:25.022Z,32.20
2019-03-24T05:26:55.875Z,31.97
2019-03-24T05:29:26.721Z,30.60
2019-03-24T05:31:57.591Z,31.37
2019-03-24T05:34:28.423Z,30.37
2019-03-24T05:36:59.361Z,30.83
2019-03-24T05:39:30.194Z,31.37
2019-03-24T05:42:01.077Z,28.73
2019-03-24T05:44:31.944Z,29.60
2019-03-24T05:47:02.869Z,29.90
2019-03-24T05:49:33.714Z,30.30
2019-03-24T05:52:04.596Z,30.93
2019-03-24T05:54:35.431Z,31.17
2019-03-24T05:57:06.289Z,31.17
2019-03-24T05:59:37.134Z,31.30
2019-03-24T06:02:07.994Z,32.17
2019-03-24T06:04:38.901Z,33.07
2019-03-24T06:07:09.774Z,33.00
2019-03-24T06:09:40.612Z,33.23
2019-03-24T06:12:11.510Z,35.67
2019-03-24T06:14:42.391Z,36.67
2019-03-24T06:17:13.246Z,36.53
2019-03-24T06:19:44.080Z,34.60
2019-03-24T06:22:14.998Z,35.27
2019-03-24T06:24:45.967Z,34.83
2019-03-24T06:27:16.901Z,33.33
2019-03-24T06:29:47.762Z,33.83
2019-03-24T06:32:18.649Z,36.57
2019-03-24T06:34:49.497Z,34.53
2019-03-24T06:37:20.400Z,36.27
2019-03-24T06:39:51.359Z,35.40
2019-03-24T06:42:23.352Z,34.83
2019-03-24T06:44:55.914Z,34.77
2019-03-24T06:47:28.456Z,34.10
2019-03-24T06:50:01.339Z,35.87
2019-03-24T06:52:32.583Z,35.43
2019-03-24T06:55:03.437Z,34.93
2019-03-24T06:57:34.302Z,33.43
2019-03-24T07:00:05.873Z,34.30
2019-03-24T07:02:36.797Z,34.33
2019-03-24T07:05:08.243Z,35.27
2019-03-24T07:07:39.131Z,36.73
2019-03-24T07:10:10.397Z,36.50
2019-03-24T07:12:41.364Z,35.10
2019-03-24T07:15:12.399Z,35.87
2019-03-24T07:17:43.387Z,34.53
2019-03-24T07:20:14.347Z,36.17
2019-03-24T07:22:45.250Z,34.97
2019-03-24T07:25:16.195Z,35.57
2019-03-24T07:27:47.016Z,36.33
2019-03-24T07:30:18.428Z,36.00
2019-03-24T07:32:49.420Z,37.00
2019-03-24T07:35:20.442Z,36.03
2019-03-24T07:37:51.426Z,40.37
2019-03-24T07:40:26.088Z,43.27
2019-03-24T07:42:57.703Z,42.73
2019-03-24T07:45:34.208Z,40.37
2019-03-24T07:48:19.048Z,36.37
2019-03-24T07:50:46.205Z,36.33
2019-03-24T07:53:23.045Z,35.80
2019-03-24T07:56:06.813Z,34.47
2019-03-24T07:58:42.368Z,34.90
2019-03-24T08:01:14.348Z,35.10
2019-03-24T08:03:45.725Z,33.10
2019-03-24T08:06:17.385Z,33.63
2019-03-24T08:08:49.436Z,32.97
2019-03-24T08:11:21.283Z,32.10
2019-03-24T08:13:55.041Z,32.97
2019-03-24T08:16:25.955Z,31.50
2019-03-24T08:18:56.789Z,33.77
2019-03-24T08:21:27.665Z,32.63
2019-03-24T08:23:59.067Z,33.07
2019-03-24T08:26:29.965Z,33.83
2019-03-24T08:29:01.075Z,34.27
2019-03-24T08:31:32.200Z,34.03
2019-03-24T08:34:06.859Z,33.37
2019-03-24T08:36:39.833Z,35.27
2019-03-24T08:39:14.642Z,36.33
2019-03-24T08:41:46.817Z,36.57
2019-03-24T08:44:19.447Z,36.33
2019-03-24T08:46:50.898Z,35.93
2019-03-24T08:49:22.090Z,35.57
2019-03-24T08:51:53.941Z,35.10
2019-03-24T08:54:24.864Z,35.17
2019-03-24T08:57:08.597Z,34.10
2019-03-24T08:59:37.658Z,33.73
2019-03-24T09:02:08.883Z,34.07
2019-03-24T09:04:50.952Z,34.73
2019-03-24T09:07:22.050Z,33.83
2019-03-24T09:09:52.978Z,33.03
2019-03-24T09:12:25.957Z,35.03
2019-03-24T09:14:57.080Z,34.20
2019-03-24T09:17:27.975Z,32.50
2019-03-24T09:19:58.833Z,30.70
2019-03-24T09:22:29.739Z,33.20
2019-03-24T09:25:00.743Z,31.83
2019-03-24T09:27:31.586Z,31.13
2019-03-24T09:30:02.496Z,33.47
2019-03-24T09:32:33.349Z,31.33
2019-03-24T09:35:04.936Z,30.73
2019-03-24T09:37:35.852Z,30.27
2019-03-24T09:40:09.041Z,31.63
2019-03-24T09:42:39.924Z,30.83
2019-03-24T09:45:12.159Z,31.87
2019-03-24T09:47:42.988Z,31.03
2019-03-24T09:50:14.326Z,30.97
2019-03-24T09:52:45.536Z,30.47
2019-03-24T09:55:16.934Z,28.13
2019-03-24T09:57:48.909Z,29.40
2019-03-24T10:00:20.404Z,29.07
2019-03-24T10:02:51.578Z,29.23
2019-03-24T10:05:22.629Z,28.93
2019-03-24T10:07:53.873Z,28.10
2019-03-24T10:10:24.941Z,28.43
2019-03-24T10:12:55.843Z,26.53
2019-03-24T10:15:26.880Z,27.57
2019-03-24T10:17:58.816Z,29.23
2019-03-24T10:20:31.640Z,28.97
2019-03-24T10:23:02.933Z,27.20
2019-03-24T10:25:34.734Z,28.07
2019-03-24T10:28:05.980Z,28.83
2019-03-24T10:30:37.353Z,28.93
2019-03-24T10:33:08.614Z,30.53
2019-03-24T10:35:49.569Z,38.67
2019-03-24T10:38:22.783Z,32.63
2019-03-24T10:40:53.746Z,28.53
2019-03-24T10:43:24.633Z,29.00
2019-03-24T10:45:55.530Z,30.07
2019-03-24T10:48:33.615Z,30.10
2019-03-24T10:51:01.689Z,30.10
2019-03-24T10:53:33.773Z,29.67
2019-03-24T10:56:04.641Z,29.77
2019-03-24T10:58:35.537Z,29.37
2019-03-24T11:01:06.392Z,29.10
2019-03-24T11:03:37.294Z,29.60
2019-03-24T11:06:08.234Z,29.20
2019-03-24T11:08:39.156Z,29.07
2019-03-24T11:11:10.023Z,30.83
2019-03-24T11:13:40.902Z,29.33
2019-03-24T11:16:11.941Z,29.37
2019-03-24T11:18:42.801Z,29.50
2019-03-24T11:21:13.659Z,29.57
2019-03-24T11:23:44.526Z,28.70
2019-03-24T11:26:15.466Z,29.43
2019-03-24T11:28:46.268Z,30.17
2019-03-24T11:31:17.140Z,28.17
2019-03-24T11:33:48.018Z,29.13
2019-03-24T11:36:18.845Z,28.80
2019-03-24T11:38:49.715Z,30.17
2019-03-24T11:41:23.396Z,28.57
2019-03-24T11:43:54.450Z,29.17
2019-03-24T11:46:25.289Z,28.20
2019-03-24T11:48:56.170Z,27.27
2019-03-24T11:51:27.049Z,25.57
2019-03-24T11:53:57.934Z,27.87
2019-03-24T11:56:28.805Z,27.43
2019-03-24T11:58:59.732Z,28.50
2019-03-24T12:01:38.193Z,27.83
2019-03-24T12:04:06.124Z,26.73
2019-03-24T12:06:40.480Z,27.00
2019-03-24T12:09:12.353Z,27.20
2019-03-24T12:11:48.544Z,25.20
2019-03-24T12:14:19.389Z,24.00
2019-03-24T12:16:50.259Z,22.30
2019-03-24T12:19:23.121Z,23.87
2019-03-24T12:21:54.640Z,21.83
2019-03-24T12:24:26.444Z,22.73
2019-03-24T12:27:01.455Z,21.60
2019-03-24T12:29:34.217Z,20.80
2019-03-24T12:32:07.214Z,20.93
2019-03-24T12:34:38.198Z,21.73
2019-03-24T12:37:10.111Z,21.73
2019-03-24T12:39:41.933Z,21.93
2019-03-24T12:42:13.414Z,21.53
2019-03-24T12:44:44.483Z,21.53
2019-03-24T12:47:16.406Z,21.73
2019-03-24T12:49:50.434Z,22.07
2019-03-24T12:52:23.566Z,20.80
2019-03-24T12:54:56.237Z,20.20
2019-03-24T12:57:27.632Z,20.33
2019-03-24T12:59:59.099Z,20.37
2019-03-24T13:02:31.388Z,20.37
2019-03-24T13:05:07.452Z,22.07
2019-03-24T13:07:39.484Z,20.57
2019-03-24T13:10:12.218Z,22.53
2019-03-24T13:12:44.925Z,21.30
2019-03-24T13:15:16.534Z,21.80
2019-03-24T13:17:48.094Z,23.60
2019-03-24T13:20:33.799Z,22.97
2019-03-24T13:22:53.982Z,23.57
2019-03-24T13:25:25.711Z,22.37
2019-03-24T13:27:56.908Z,22.50
2019-03-24T13:30:27.909Z,21.23
2019-03-24T13:32:58.798Z,22.00
2019-03-24T13:35:29.696Z,21.83
2019-03-24T13:38:01.377Z,20.53
2019-03-24T13:40:32.293Z,21.83
2019-03-24T13:43:03.431Z,22.00
2019-03-24T13:45:34.463Z,23.40
2019-03-24T13:48:05.306Z,23.40
2019-03-24T13:50:36.349Z,21.97
2019-03-24T13:53:07.370Z,21.17
2019-03-24T13:55:38.404Z,21.57
2019-03-24T13:58:12.007Z,21.23
2019-03-24T14:00:42.677Z,22.00
2019-03-24T14:03:14.499Z,23.60
2019-03-24T14:05:45.492Z,22.63
2019-03-24T14:08:16.431Z,21.07
2019-03-24T14:10:47.643Z,20.67
2019-03-24T14:13:18.549Z,24.07
2019-03-24T14:15:49.489Z,22.80
2019-03-24T14:18:20.357Z,24.17
2019-03-24T14:20:51.293Z,23.67
2019-03-24T14:23:22.136Z,22.77
2019-03-24T14:25:53.017Z,23.17
2019-03-24T14:28:23.886Z,22.87
2019-03-24T14:30:54.868Z,20.87
2019-03-24T14:33:25.676Z,18.60
2019-03-24T14:35:56.575Z,19.77
2019-03-24T14:38:27.432Z,19.50
2019-03-24T14:40:58.384Z,19.40
2019-03-24T14:43:29.283Z,20.57
2019-03-24T14:46:00.198Z,21.13
2019-03-24T14:48:31.059Z,20.40
2019-03-24T14:51:01.955Z,18.73
2019-03-24T14:53:32.839Z,19.00
2019-03-24T14:56:03.766Z,19.53
2019-03-24T14:58:34.645Z,17.33
2019-03-24T15:01:05.755Z,16.23
2019-03-24T15:03:36.911Z,17.00
2019-03-24T15:06:09.487Z,14.73
2019-03-24T15:08:40.468Z,16.40
2019-03-24T15:11:11.840Z,17.23
2019-03-24T15:13:43.176Z,18.87
2019-03-24T15:16:14.363Z,19.30
2019-03-24T15:18:47.125Z,18.70
2019-03-24T15:21:19.045Z,17.33
2019-03-24T15:23:51.813Z,16.83
2019-03-24T15:26:22.767Z,15.97
2019-03-24T15:28:57.325Z,16.50
2019-03-24T15:31:33.748Z,14.17
2019-03-24T15:34:06.473Z,17.33
2019-03-24T15:36:38.792Z,14.60
2019-03-24T15:39:12.014Z,14.03
2019-03-24T15:41:43.677Z,13.60
2019-03-24T15:44:15.078Z,14.70
2019-03-24T15:46:46.611Z,13.67
2019-03-24T15:49:19.032Z,13.50
2019-03-24T15:51:50.187Z,14.53
2019-03-24T15:54:23.094Z,13.80
2019-03-24T15:56:54.443Z,15.63
2019-03-24T15:59:25.935Z,13.97
2019-03-24T16:01:58.692Z,15.13
2019-03-24T16:04:30.844Z,14.87
2019-03-24T16:07:02.488Z,13.80
2019-03-24T16:09:34.759Z,13.90
2019-03-24T16:12:07.445Z,13.70
2019-03-24T16:14:38.457Z,14.00
2019-03-24T16:17:11.267Z,13.93
2019-03-24T16:19:42.465Z,18.87
2019-03-24T16:22:13.478Z,16.70
2019-03-24T16:24:44.635Z,14.57
2019-03-24T16:27:15.727Z,16.93
2019-03-24T16:29:46.821Z,15.93
2019-03-24T16:32:18.252Z,14.77
2019-03-24T16:34:49.548Z,16.20
2019-03-24T16:37:21.060Z,16.43
2019-03-24T16:39:52.194Z,23.03
2019-03-24T16:42:23.178Z,16.87
2019-03-24T16:44:54.425Z,16.90
2019-03-24T16:47:25.506Z,14.37
2019-03-24T16:50:16.455Z,16.13
2019-03-24T16:53:04.435Z,14.63
2019-03-24T16:55:38.436Z,14.37
2019-03-24T16:58:11.313Z,14.13
2019-03-24T17:00:45.642Z,13.93
2019-03-24T17:03:20.524Z,13.43
2019-03-24T17:05:51.052Z,14.80
2019-03-24T17:08:22.000Z,15.50
2019-03-24T17:10:53.083Z,14.23
2019-03-24T17:13:24.098Z,15.27
2019-03-24T17:15:55.111Z,15.77
2019-03-24T17:18:26.140Z,19.73
2019-03-24T17:20:57.180Z,48.37
2019-03-24T17:23:28.337Z,20.13
2019-03-24T17:26:00.192Z,25.90
2019-03-24T17:28:31.131Z,19.37
2019-03-24T17:31:02.252Z,18.77
2019-03-24T17:33:33.369Z,21.13
2019-03-24T17:36:06.702Z,19.73
2019-03-24T17:38:37.559Z,19.37
2019-03-24T17:41:08.864Z,21.17
2019-03-24T17:43:41.523Z,22.80
2019-03-24T17:46:12.639Z,23.37
2019-03-24T17:48:44.621Z,22.70
2019-03-24T17:51:15.776Z,22.67
2019-03-24T17:53:50.155Z,23.23
2019-03-24T17:56:25.893Z,23.27
2019-03-24T17:58:59.262Z,22.67
2019-03-24T18:01:31.035Z,22.10
2019-03-24T18:04:06.446Z,22.40
2019-03-24T18:06:37.979Z,22.20
2019-03-24T18:09:09.921Z,21.43
2019-03-24T18:11:41.053Z,23.07
2019-03-24T18:14:12.033Z,23.70
2019-03-24T18:16:42.885Z,22.40
2019-03-24T18:19:13.787Z,21.80
2019-03-24T18:21:44.621Z,22.00
2019-03-24T18:24:17.298Z,22.47
2019-03-24T18:26:48.216Z,22.63
2019-03-24T18:29:19.176Z,21.27
2019-03-24T18:31:50.069Z,22.93
2019-03-24T18:34:20.926Z,21.23
2019-03-24T18:36:51.943Z,21.00
2019-03-24T18:39:22.905Z,22.10
2019-03-24T18:41:54.016Z,19.67
2019-03-24T18:44:24.871Z,19.23
2019-03-24T18:46:56.267Z,18.53
2019-03-24T18:49:27.613Z,17.57
2019-03-24T18:51:59.207Z,17.50
2019-03-24T18:54:30.269Z,17.37
2019-03-24T18:57:01.935Z,16.30
2019-03-24T18:59:33.506Z,15.83
2019-03-24T19:02:04.646Z,16.93
2019-03-24T19:04:38.919Z,15.60
2019-03-24T19:07:10.287Z,17.13
2019-03-24T19:09:41.272Z,17.70
2019-03-24T19:12:12.598Z,17.37
2019-03-24T19:14:47.529Z,18.13
2019-03-24T19:17:19.581Z,17.97
2019-03-24T19:19:50.460Z,19.47
2019-03-24T19:22:33.075Z,20.97
2019-03-24T19:24:56.489Z,18.47
2019-03-24T19:27:29.754Z,14.93
2019-03-24T19:30:01.105Z,13.10
2019-03-24T19:32:32.711Z,10.93
2019-03-24T19:35:05.234Z,9.30
2019-03-24T19:37:36.549Z,9.40
2019-03-24T19:40:09.468Z,9.40
2019-03-24T19:42:40.645Z,9.17
2019-03-24T19:45:13.224Z,8.10
2019-03-24T19:47:44.256Z,7.93
2019-03-24T19:50:15.145Z,7.83
2019-03-24T19:52:46.120Z,7.70
2019-03-24T19:55:17.079Z,7.27
2019-03-24T19:57:48.100Z,7.17
2019-03-24T20:00:18.986Z,7.67
2019-03-24T20:02:50.203Z,6.50
2019-03-24T20:05:21.284Z,6.90
2019-03-24T20:07:52.258Z,6.83
2019-03-24T20:10:23.479Z,6.60
2019-03-24T20:12:54.432Z,7.07
2019-03-24T20:15:25.317Z,9.40
2019-03-24T20:17:56.777Z,7.77
2019-03-24T20:20:28.976Z,8.20
2019-03-24T20:22:59.886Z,7.87
2019-03-24T20:25:31.898Z,8.60
2019-03-24T20:28:02.833Z,7.30
2019-03-24T20:30:33.789Z,7.00
2019-03-24T20:33:11.624Z,7.00
2019-03-24T20:35:43.984Z,5.90
2019-03-24T20:38:15.329Z,5.30
2019-03-24T20:41:16.943Z,4.83
2019-03-24T20:43:48.015Z,4.80
2019-03-24T20:46:19.300Z,4.90
2019-03-24T20:48:50.584Z,5.97
2019-03-24T20:51:21.456Z,5.13
2019-03-24T20:53:56.174Z,5.90
2019-03-24T20:56:26.991Z,4.63
2019-03-24T20:58:58.207Z,4.40
2019-03-24T21:01:29.462Z,4.20
2019-03-24T21:04:00.962Z,4.10
2019-03-24T21:06:32.154Z,4.70
2019-03-24T21:09:13.541Z,4.93
2019-03-24T21:11:41.818Z,4.10
2019-03-24T21:14:13.641Z,4.07
2019-03-24T21:16:44.565Z,4.10
2019-03-24T21:19:15.544Z,5.30
2019-03-24T21:21:47.290Z,4.20
2019-03-24T21:24:18.251Z,4.27
2019-03-24T21:26:49.131Z,3.63
2019-03-24T21:29:23.712Z,3.03
2019-03-24T21:31:57.879Z,3.40
2019-03-24T21:34:29.112Z,3.40
2019-03-24T21:37:00.264Z,4.83
2019-03-24T21:39:31.155Z,5.67
2019-03-24T21:42:02.137Z,6.83
2019-03-24T21:44:32.921Z,6.57
2019-03-24T21:47:10.448Z,6.70
2019-03-24T21:49:41.352Z,5.57
2019-03-24T21:52:12.226Z,5.10
